sensor_id;sensor_type;location;lat;lon;timestamp;temperature;humidity
6496;DHT22;3281;47.658;9.166;2023-08-21T00:00:07;21.20;1.00
6496;DHT22;3281;47.658;9.166;2023-08-21T00:02:34;21.20;1.00
6496;DHT22;3281;47.658;9.166;2023-08-21T00:05:01;21.20;1.00
6496;DHT22;3281;47.658;9.166;2023-08-21T00:07:27;21.20;1.00
6496;DHT22;3281;47.658;9.166;2023-08-21T00:09:55;21.20;1.00
6496;DHT22;3281;47.658;9.166;2023-08-21T00:12:22;21.20;1.00
6496;DHT22;3281;47.658;9.166;2023-08-21T00:14:49;21.20;1.00
6496;DHT22;3281;47.658;9.166;2023-08-21T00:17:15;21.20;1.00
6496;DHT22;3281;47.658;9.166;2023-08-21T00:19:42;21.10;1.00
6496;DHT22;3281;47.658;9.166;2023-08-21T00:22:09;21.10;1.00
6496;DHT22;3281;47.658;9.166;2023-08-21T00:24:35;21.10;1.00
6496;DHT22;3281;47.658;9.166;2023-08-21T00:27:03;21.20;1.00
6496;DHT22;3281;47.658;9.166;2023-08-21T00:29:30;21.20;1.00
6496;DHT22;3281;47.658;9.166;2023-08-21T00:31:57;21.20;1.00
6496;DHT22;3281;47.658;9.166;2023-08-21T00:34:23;21.10;1.00
6496;DHT22;3281;47.658;9.166;2023-08-21T00:36:50;21.20;1.00
6496;DHT22;3281;47.658;9.166;2023-08-21T00:39:17;21.10;1.00
6496;DHT22;3281;47.658;9.166;2023-08-21T00:41:43;21.00;1.00
6496;DHT22;3281;47.658;9.166;2023-08-21T00:44:11;21.10;1.00
6496;DHT22;3281;47.658;9.166;2023-08-21T00:46:38;21.00;1.00
6496;DHT22;3281;47.658;9.166;2023-08-21T00:49:05;20.90;1.00
6496;DHT22;3281;47.658;9.166;2023-08-21T00:51:32;21.00;1.00
6496;DHT22;3281;47.658;9.166;2023-08-21T00:53:59;20.90;1.00
6496;DHT22;3281;47.658;9.166;2023-08-21T00:56:25;21.00;1.00
6496;DHT22;3281;47.658;9.166;2023-08-21T00:58:52;21.00;1.00
6496;DHT22;3281;47.658;9.166;2023-08-21T01:01:24;20.90;1.00
6496;DHT22;3281;47.658;9.166;2023-08-21T01:03:50;21.00;1.00
6496;DHT22;3281;47.658;9.166;2023-08-21T01:06:18;20.90;1.00
6496;DHT22;3281;47.658;9.166;2023-08-21T01:08:54;21.00;1.00
6496;DHT22;3281;47.658;9.166;2023-08-21T01:11:31;21.00;1.00
6496;DHT22;3281;47.658;9.166;2023-08-21T01:14:08;21.00;1.00
6496;DHT22;3281;47.658;9.166;2023-08-21T01:16:38;21.00;1.00
6496;DHT22;3281;47.658;9.166;2023-08-21T01:21:51;21.00;1.00
6496;DHT22;3281;47.658;9.166;2023-08-21T01:24:20;21.00;1.00
6496;DHT22;3281;47.658;9.166;2023-08-21T01:26:47;21.00;1.00
6496;DHT22;3281;47.658;9.166;2023-08-21T01:29:14;21.00;1.00
6496;DHT22;3281;47.658;9.166;2023-08-21T01:31:44;20.90;1.00
6496;DHT22;3281;47.658;9.166;2023-08-21T01:34:14;21.00;1.00
6496;DHT22;3281;47.658;9.166;2023-08-21T01:36:42;20.90;1.00
6496;DHT22;3281;47.658;9.166;2023-08-21T01:39:09;20.90;1.00
6496;DHT22;3281;47.658;9.166;2023-08-21T01:41:37;20.90;1.00
6496;DHT22;3281;47.658;9.166;2023-08-21T01:44:04;20.90;1.00
6496;DHT22;3281;47.658;9.166;2023-08-21T01:46:31;20.90;1.00
6496;DHT22;3281;47.658;9.166;2023-08-21T01:48:57;20.90;1.00
6496;DHT22;3281;47.658;9.166;2023-08-21T01:51:24;20.90;1.00
6496;DHT22;3281;47.658;9.166;2023-08-21T01:53:51;20.80;1.00
6496;DHT22;3281;47.658;9.166;2023-08-21T01:56:17;20.80;1.00
6496;DHT22;3281;47.658;9.166;2023-08-21T01:58:45;20.80;1.00
6496;DHT22;3281;47.658;9.166;2023-08-21T02:01:12;20.80;1.00
6496;DHT22;3281;47.658;9.166;2023-08-21T02:03:40;20.80;1.00
6496;DHT22;3281;47.658;9.166;2023-08-21T02:06:07;20.90;1.00
6496;DHT22;3281;47.658;9.166;2023-08-21T02:08:33;20.80;1.00
6496;DHT22;3281;47.658;9.166;2023-08-21T02:11:00;20.80;1.00
6496;DHT22;3281;47.658;9.166;2023-08-21T02:13:27;20.80;1.00
6496;DHT22;3281;47.658;9.166;2023-08-21T02:15:55;20.80;1.00
6496;DHT22;3281;47.658;9.166;2023-08-21T02:18:22;20.80;1.00
6496;DHT22;3281;47.658;9.166;2023-08-21T02:20:48;20.80;1.00
6496;DHT22;3281;47.658;9.166;2023-08-21T02:23:15;20.80;1.00
6496;DHT22;3281;47.658;9.166;2023-08-21T02:25:42;20.80;1.00
6496;DHT22;3281;47.658;9.166;2023-08-21T02:28:09;20.70;1.00
6496;DHT22;3281;47.658;9.166;2023-08-21T02:30:35;20.70;1.00
6496;DHT22;3281;47.658;9.166;2023-08-21T02:33:07;20.70;1.00
6496;DHT22;3281;47.658;9.166;2023-08-21T02:35:34;20.70;1.00
6496;DHT22;3281;47.658;9.166;2023-08-21T02:38:01;20.70;1.00
6496;DHT22;3281;47.658;9.166;2023-08-21T02:40:28;20.80;1.00
6496;DHT22;3281;47.658;9.166;2023-08-21T02:42:54;20.70;1.00
6496;DHT22;3281;47.658;9.166;2023-08-21T02:45:21;20.70;1.00
6496;DHT22;3281;47.658;9.166;2023-08-21T02:47:48;20.70;1.00
6496;DHT22;3281;47.658;9.166;2023-08-21T02:50:16;20.70;1.00
6496;DHT22;3281;47.658;9.166;2023-08-21T02:52:43;20.70;1.00
6496;DHT22;3281;47.658;9.166;2023-08-21T02:55:09;20.70;1.00
6496;DHT22;3281;47.658;9.166;2023-08-21T02:57:36;20.70;1.00
6496;DHT22;3281;47.658;9.166;2023-08-21T03:00:03;20.70;1.00
6496;DHT22;3281;47.658;9.166;2023-08-21T03:02:30;20.60;1.00
6496;DHT22;3281;47.658;9.166;2023-08-21T03:04:58;20.70;1.00
6496;DHT22;3281;47.658;9.166;2023-08-21T03:07:26;20.60;1.00
6496;DHT22;3281;47.658;9.166;2023-08-21T03:09:52;20.60;1.00
6496;DHT22;3281;47.658;9.166;2023-08-21T03:12:19;20.50;1.00
6496;DHT22;3281;47.658;9.166;2023-08-21T03:14:46;20.60;1.00
6496;DHT22;3281;47.658;9.166;2023-08-21T03:17:13;20.60;1.00
6496;DHT22;3281;47.658;9.166;2023-08-21T03:19:39;20.60;1.00
6496;DHT22;3281;47.658;9.166;2023-08-21T03:22:06;20.50;1.00
6496;DHT22;3281;47.658;9.166;2023-08-21T03:24:34;20.50;1.00
6496;DHT22;3281;47.658;9.166;2023-08-21T03:27:01;20.50;1.00
6496;DHT22;3281;47.658;9.166;2023-08-21T03:29:28;20.50;1.00
6496;DHT22;3281;47.658;9.166;2023-08-21T03:31:55;20.50;1.00
6496;DHT22;3281;47.658;9.166;2023-08-21T03:34:22;20.40;1.00
6496;DHT22;3281;47.658;9.166;2023-08-21T03:36:49;20.40;1.00
6496;DHT22;3281;47.658;9.166;2023-08-21T03:39:15;20.30;1.00
6496;DHT22;3281;47.658;9.166;2023-08-21T03:41:43;20.30;1.00
6496;DHT22;3281;47.658;9.166;2023-08-21T03:44:10;20.40;1.00
6496;DHT22;3281;47.658;9.166;2023-08-21T03:46:37;20.50;1.00
6496;DHT22;3281;47.658;9.166;2023-08-21T03:49:04;20.50;1.00
6496;DHT22;3281;47.658;9.166;2023-08-21T03:51:30;20.50;1.00
6496;DHT22;3281;47.658;9.166;2023-08-21T03:53:57;20.50;1.00
6496;DHT22;3281;47.658;9.166;2023-08-21T03:56:24;20.50;1.00
6496;DHT22;3281;47.658;9.166;2023-08-21T03:58:52;20.50;1.00
6496;DHT22;3281;47.658;9.166;2023-08-21T04:01:18;20.50;1.00
6496;DHT22;3281;47.658;9.166;2023-08-21T04:03:45;20.60;1.00
6496;DHT22;3281;47.658;9.166;2023-08-21T04:06:12;20.50;1.00
6496;DHT22;3281;47.658;9.166;2023-08-21T04:08:38;20.50;1.00
6496;DHT22;3281;47.658;9.166;2023-08-21T04:11:06;20.50;1.00
6496;DHT22;3281;47.658;9.166;2023-08-21T04:13:33;20.50;1.00
6496;DHT22;3281;47.658;9.166;2023-08-21T04:16:01;20.50;1.00
6496;DHT22;3281;47.658;9.166;2023-08-21T04:18:27;20.50;1.00
6496;DHT22;3281;47.658;9.166;2023-08-21T04:20:54;20.50;1.00
6496;DHT22;3281;47.658;9.166;2023-08-21T04:23:21;20.40;1.00
6496;DHT22;3281;47.658;9.166;2023-08-21T04:25:47;20.50;1.00
6496;DHT22;3281;47.658;9.166;2023-08-21T04:28:14;20.40;1.00
6496;DHT22;3281;47.658;9.166;2023-08-21T04:30:41;20.40;1.00
6496;DHT22;3281;47.658;9.166;2023-08-21T04:33:09;20.40;1.00
6496;DHT22;3281;47.658;9.166;2023-08-21T04:35:38;20.40;1.00
6496;DHT22;3281;47.658;9.166;2023-08-21T04:38:05;20.40;1.00
6496;DHT22;3281;47.658;9.166;2023-08-21T04:40:32;20.30;1.00
6496;DHT22;3281;47.658;9.166;2023-08-21T04:42:59;20.30;1.00
6496;DHT22;3281;47.658;9.166;2023-08-21T04:45:26;20.30;1.00
6496;DHT22;3281;47.658;9.166;2023-08-21T04:47:52;20.30;1.00
6496;DHT22;3281;47.658;9.166;2023-08-21T04:50:21;20.30;1.00
6496;DHT22;3281;47.658;9.166;2023-08-21T04:52:47;20.40;1.00
6496;DHT22;3281;47.658;9.166;2023-08-21T04:55:15;20.40;1.00
6496;DHT22;3281;47.658;9.166;2023-08-21T04:57:42;20.40;1.00
6496;DHT22;3281;47.658;9.166;2023-08-21T05:00:09;20.50;1.00
6496;DHT22;3281;47.658;9.166;2023-08-21T05:02:36;20.40;1.00
6496;DHT22;3281;47.658;9.166;2023-08-21T05:05:03;20.50;1.00
6496;DHT22;3281;47.658;9.166;2023-08-21T05:07:32;20.50;1.00
6496;DHT22;3281;47.658;9.166;2023-08-21T05:09:59;20.50;1.00
6496;DHT22;3281;47.658;9.166;2023-08-21T05:12:26;20.50;1.00
6496;DHT22;3281;47.658;9.166;2023-08-21T05:14:53;20.50;1.00
6496;DHT22;3281;47.658;9.166;2023-08-21T05:17:20;20.60;1.00
6496;DHT22;3281;47.658;9.166;2023-08-21T05:19:46;20.60;1.00
6496;DHT22;3281;47.658;9.166;2023-08-21T05:22:13;20.70;1.00
6496;DHT22;3281;47.658;9.166;2023-08-21T05:24:41;20.60;1.00
6496;DHT22;3281;47.658;9.166;2023-08-21T05:27:07;20.70;1.00
6496;DHT22;3281;47.658;9.166;2023-08-21T05:29:34;20.70;1.00
6496;DHT22;3281;47.658;9.166;2023-08-21T05:32:01;20.70;1.00
6496;DHT22;3281;47.658;9.166;2023-08-21T05:34:27;20.80;1.00
6496;DHT22;3281;47.658;9.166;2023-08-21T05:36:54;20.80;1.00
6496;DHT22;3281;47.658;9.166;2023-08-21T05:39:21;20.90;1.00
6496;DHT22;3281;47.658;9.166;2023-08-21T05:41:49;20.90;1.00
6496;DHT22;3281;47.658;9.166;2023-08-21T05:44:16;21.00;1.00
6496;DHT22;3281;47.658;9.166;2023-08-21T05:46:42;21.00;1.00
6496;DHT22;3281;47.658;9.166;2023-08-21T05:49:09;21.10;1.00
6496;DHT22;3281;47.658;9.166;2023-08-21T05:51:36;21.10;1.00
6496;DHT22;3281;47.658;9.166;2023-08-21T05:54:03;21.20;1.00
6496;DHT22;3281;47.658;9.166;2023-08-21T05:56:29;21.20;1.00
6496;DHT22;3281;47.658;9.166;2023-08-21T05:58:57;21.20;1.00
6496;DHT22;3281;47.658;9.166;2023-08-21T06:01:24;21.20;1.00
6496;DHT22;3281;47.658;9.166;2023-08-21T06:03:51;21.20;1.00
6496;DHT22;3281;47.658;9.166;2023-08-21T06:06:17;21.30;1.00
6496;DHT22;3281;47.658;9.166;2023-08-21T06:08:44;21.30;1.00
6496;DHT22;3281;47.658;9.166;2023-08-21T06:11:11;21.30;1.00
6496;DHT22;3281;47.658;9.166;2023-08-21T06:13:38;21.40;1.00
6496;DHT22;3281;47.658;9.166;2023-08-21T06:16:06;21.50;1.00
6496;DHT22;3281;47.658;9.166;2023-08-21T06:18:32;21.50;1.00
6496;DHT22;3281;47.658;9.166;2023-08-21T06:20:59;21.60;1.00
6496;DHT22;3281;47.658;9.166;2023-08-21T06:23:26;21.60;1.00
6496;DHT22;3281;47.658;9.166;2023-08-21T06:25:52;21.70;1.00
6496;DHT22;3281;47.658;9.166;2023-08-21T06:28:19;21.80;1.00
6496;DHT22;3281;47.658;9.166;2023-08-21T06:30:46;21.90;1.00
6496;DHT22;3281;47.658;9.166;2023-08-21T06:33:14;21.90;1.00
6496;DHT22;3281;47.658;9.166;2023-08-21T06:35:40;22.00;1.00
6496;DHT22;3281;47.658;9.166;2023-08-21T06:38:07;22.10;1.00
6496;DHT22;3281;47.658;9.166;2023-08-21T06:40:34;22.10;1.00
6496;DHT22;3281;47.658;9.166;2023-08-21T06:43:00;22.20;1.00
6496;DHT22;3281;47.658;9.166;2023-08-21T06:45:29;22.20;1.00
6496;DHT22;3281;47.658;9.166;2023-08-21T06:47:57;22.30;1.00
6496;DHT22;3281;47.658;9.166;2023-08-21T06:50:26;22.30;1.00
6496;DHT22;3281;47.658;9.166;2023-08-21T06:52:52;22.30;1.00
6496;DHT22;3281;47.658;9.166;2023-08-21T06:55:19;22.30;1.00
6496;DHT22;3281;47.658;9.166;2023-08-21T06:57:46;22.30;1.00
6496;DHT22;3281;47.658;9.166;2023-08-21T07:00:13;22.30;1.00
6496;DHT22;3281;47.658;9.166;2023-08-21T07:02:40;22.40;1.00
6496;DHT22;3281;47.658;9.166;2023-08-21T07:05:07;22.50;1.00
6496;DHT22;3281;47.658;9.166;2023-08-21T07:07:35;22.70;1.00
6496;DHT22;3281;47.658;9.166;2023-08-21T07:10:02;22.70;1.00
6496;DHT22;3281;47.658;9.166;2023-08-21T07:12:30;22.80;1.00
6496;DHT22;3281;47.658;9.166;2023-08-21T07:14:56;22.90;1.00
6496;DHT22;3281;47.658;9.166;2023-08-21T07:17:23;23.00;1.00
6496;DHT22;3281;47.658;9.166;2023-08-21T07:19:50;23.10;1.00
6496;DHT22;3281;47.658;9.166;2023-08-21T07:22:18;23.20;1.00
6496;DHT22;3281;47.658;9.166;2023-08-21T07:24:46;23.20;1.00
6496;DHT22;3281;47.658;9.166;2023-08-21T07:27:13;23.30;1.00
6496;DHT22;3281;47.658;9.166;2023-08-21T07:29:40;23.40;1.00
6496;DHT22;3281;47.658;9.166;2023-08-21T07:32:06;23.50;1.00
6496;DHT22;3281;47.658;9.166;2023-08-21T07:34:33;23.50;1.00
6496;DHT22;3281;47.658;9.166;2023-08-21T07:37:00;23.50;1.00
6496;DHT22;3281;47.658;9.166;2023-08-21T07:39:26;23.60;1.00
6496;DHT22;3281;47.658;9.166;2023-08-21T07:41:54;23.70;1.00
6496;DHT22;3281;47.658;9.166;2023-08-21T07:44:21;23.70;1.00
6496;DHT22;3281;47.658;9.166;2023-08-21T07:46:48;23.80;1.00
6496;DHT22;3281;47.658;9.166;2023-08-21T07:49:14;23.90;1.00
6496;DHT22;3281;47.658;9.166;2023-08-21T07:51:41;23.90;1.00
6496;DHT22;3281;47.658;9.166;2023-08-21T07:54:08;23.90;1.00
6496;DHT22;3281;47.658;9.166;2023-08-21T07:56:34;23.90;1.00
6496;DHT22;3281;47.658;9.166;2023-08-21T07:59:03;24.00;1.00
6496;DHT22;3281;47.658;9.166;2023-08-21T08:01:30;24.10;1.00
6496;DHT22;3281;47.658;9.166;2023-08-21T08:03:58;24.20;1.00
6496;DHT22;3281;47.658;9.166;2023-08-21T08:06:25;24.30;1.00
6496;DHT22;3281;47.658;9.166;2023-08-21T08:08:51;24.30;1.00
6496;DHT22;3281;47.658;9.166;2023-08-21T08:11:18;24.50;1.00
6496;DHT22;3281;47.658;9.166;2023-08-21T08:13:45;24.50;1.00
6496;DHT22;3281;47.658;9.166;2023-08-21T08:16:13;24.60;1.00
6496;DHT22;3281;47.658;9.166;2023-08-21T08:18:39;24.60;1.00
6496;DHT22;3281;47.658;9.166;2023-08-21T08:21:06;24.70;1.00
6496;DHT22;3281;47.658;9.166;2023-08-21T08:23:33;24.70;1.00
6496;DHT22;3281;47.658;9.166;2023-08-21T08:25:59;24.80;1.00
6496;DHT22;3281;47.658;9.166;2023-08-21T08:28:26;24.90;1.00
6496;DHT22;3281;47.658;9.166;2023-08-21T08:30:53;25.00;1.00
6496;DHT22;3281;47.658;9.166;2023-08-21T08:33:21;25.00;1.00
6496;DHT22;3281;47.658;9.166;2023-08-21T08:35:48;25.10;1.00
6496;DHT22;3281;47.658;9.166;2023-08-21T08:38:14;25.10;1.00
6496;DHT22;3281;47.658;9.166;2023-08-21T08:40:44;25.20;1.00
6496;DHT22;3281;47.658;9.166;2023-08-21T08:43:11;25.30;1.00
6496;DHT22;3281;47.658;9.166;2023-08-21T08:45:38;25.50;1.00
6496;DHT22;3281;47.658;9.166;2023-08-21T08:48:07;25.60;1.00
6496;DHT22;3281;47.658;9.166;2023-08-21T08:50:37;25.70;1.00
6496;DHT22;3281;47.658;9.166;2023-08-21T08:53:04;25.80;1.00
6496;DHT22;3281;47.658;9.166;2023-08-21T08:55:32;25.80;1.00
6496;DHT22;3281;47.658;9.166;2023-08-21T08:57:58;25.90;1.00
6496;DHT22;3281;47.658;9.166;2023-08-21T09:00:26;26.00;1.00
6496;DHT22;3281;47.658;9.166;2023-08-21T09:02:53;26.10;1.00
6496;DHT22;3281;47.658;9.166;2023-08-21T09:05:20;26.10;1.00
6496;DHT22;3281;47.658;9.166;2023-08-21T09:08:02;26.30;1.00
6496;DHT22;3281;47.658;9.166;2023-08-21T09:10:29;26.30;1.00
6496;DHT22;3281;47.658;9.166;2023-08-21T09:12:56;26.40;1.00
6496;DHT22;3281;47.658;9.166;2023-08-21T09:15:27;26.40;1.00
6496;DHT22;3281;47.658;9.166;2023-08-21T09:17:55;26.60;1.00
6496;DHT22;3281;47.658;9.166;2023-08-21T09:20:22;26.60;1.00
6496;DHT22;3281;47.658;9.166;2023-08-21T09:22:54;26.70;1.00
6496;DHT22;3281;47.658;9.166;2023-08-21T09:25:22;26.90;1.00
6496;DHT22;3281;47.658;9.166;2023-08-21T09:27:52;27.20;1.00
6496;DHT22;3281;47.658;9.166;2023-08-21T09:30:19;27.50;1.00
6496;DHT22;3281;47.658;9.166;2023-08-21T09:32:53;27.90;1.00
6496;DHT22;3281;47.658;9.166;2023-08-21T09:35:20;28.30;1.00
6496;DHT22;3281;47.658;9.166;2023-08-21T09:37:47;29.10;1.00
6496;DHT22;3281;47.658;9.166;2023-08-21T09:40:16;29.50;1.00
6496;DHT22;3281;47.658;9.166;2023-08-21T09:42:42;29.90;1.00
6496;DHT22;3281;47.658;9.166;2023-08-21T09:45:09;30.40;1.00
6496;DHT22;3281;47.658;9.166;2023-08-21T09:47:37;30.90;1.00
6496;DHT22;3281;47.658;9.166;2023-08-21T09:50:05;31.00;1.00
6496;DHT22;3281;47.658;9.166;2023-08-21T09:52:32;31.50;1.00
6496;DHT22;3281;47.658;9.166;2023-08-21T09:54:59;31.90;1.00
6496;DHT22;3281;47.658;9.166;2023-08-21T09:57:31;32.20;1.00
6496;DHT22;3281;47.658;9.166;2023-08-21T09:59:59;32.50;1.00
6496;DHT22;3281;47.658;9.166;2023-08-21T10:02:30;32.90;1.00
6496;DHT22;3281;47.658;9.166;2023-08-21T10:04:57;32.90;1.00
6496;DHT22;3281;47.658;9.166;2023-08-21T10:07:27;33.00;1.00
6496;DHT22;3281;47.658;9.166;2023-08-21T10:09:55;33.00;1.00
6496;DHT22;3281;47.658;9.166;2023-08-21T10:12:22;32.80;1.00
6496;DHT22;3281;47.658;9.166;2023-08-21T10:14:51;33.40;1.00
6496;DHT22;3281;47.658;9.166;2023-08-21T10:17:18;33.80;1.00
6496;DHT22;3281;47.658;9.166;2023-08-21T10:19:51;34.10;1.00
6496;DHT22;3281;47.658;9.166;2023-08-21T10:22:37;34.40;1.00
6496;DHT22;3281;47.658;9.166;2023-08-21T10:25:04;34.30;1.00
6496;DHT22;3281;47.658;9.166;2023-08-21T10:27:40;34.40;1.00
6496;DHT22;3281;47.658;9.166;2023-08-21T10:30:13;34.20;1.00
6496;DHT22;3281;47.658;9.166;2023-08-21T10:32:44;34.30;1.00
6496;DHT22;3281;47.658;9.166;2023-08-21T10:35:14;34.80;1.00
6496;DHT22;3281;47.658;9.166;2023-08-21T10:38:06;35.00;1.00
6496;DHT22;3281;47.658;9.166;2023-08-21T10:40:33;35.20;1.00
6496;DHT22;3281;47.658;9.166;2023-08-21T10:43:00;35.10;1.00
6496;DHT22;3281;47.658;9.166;2023-08-21T10:45:29;35.10;1.00
6496;DHT22;3281;47.658;9.166;2023-08-21T10:47:57;35.20;1.00
6496;DHT22;3281;47.658;9.166;2023-08-21T10:50:24;35.20;1.00
6496;DHT22;3281;47.658;9.166;2023-08-21T10:52:52;35.10;1.00
6496;DHT22;3281;47.658;9.166;2023-08-21T10:55:19;35.00;1.00
6496;DHT22;3281;47.658;9.166;2023-08-21T10:57:47;34.90;1.00
6496;DHT22;3281;47.658;9.166;2023-08-21T11:00:15;34.80;1.00
6496;DHT22;3281;47.658;9.166;2023-08-21T11:02:45;34.60;1.00
6496;DHT22;3281;47.658;9.166;2023-08-21T11:05:13;33.70;1.00
6496;DHT22;3281;47.658;9.166;2023-08-21T11:07:41;33.00;1.00
6496;DHT22;3281;47.658;9.166;2023-08-21T11:10:11;32.40;1.00
6496;DHT22;3281;47.658;9.166;2023-08-21T11:12:40;31.80;1.00
6496;DHT22;3281;47.658;9.166;2023-08-21T11:15:15;31.20;1.00
6496;DHT22;3281;47.658;9.166;2023-08-21T11:17:41;30.40;1.00
6496;DHT22;3281;47.658;9.166;2023-08-21T11:20:10;30.10;1.00
6496;DHT22;3281;47.658;9.166;2023-08-21T11:22:37;29.80;1.00
6496;DHT22;3281;47.658;9.166;2023-08-21T11:25:04;29.60;1.00
6496;DHT22;3281;47.658;9.166;2023-08-21T11:27:31;29.30;1.00
6496;DHT22;3281;47.658;9.166;2023-08-21T11:29:58;29.10;1.00
6496;DHT22;3281;47.658;9.166;2023-08-21T11:32:26;29.00;1.00
6496;DHT22;3281;47.658;9.166;2023-08-21T11:34:54;28.90;1.00
6496;DHT22;3281;47.658;9.166;2023-08-21T11:37:23;28.90;1.00
6496;DHT22;3281;47.658;9.166;2023-08-21T11:39:52;29.00;1.00
6496;DHT22;3281;47.658;9.166;2023-08-21T11:42:20;29.10;1.00
6496;DHT22;3281;47.658;9.166;2023-08-21T11:44:49;29.10;1.00
6496;DHT22;3281;47.658;9.166;2023-08-21T11:47:17;29.10;1.00
6496;DHT22;3281;47.658;9.166;2023-08-21T11:49:45;29.10;1.00
6496;DHT22;3281;47.658;9.166;2023-08-21T11:52:17;29.20;1.00
6496;DHT22;3281;47.658;9.166;2023-08-21T11:54:48;29.30;1.00
6496;DHT22;3281;47.658;9.166;2023-08-21T11:57:15;29.30;1.00
6496;DHT22;3281;47.658;9.166;2023-08-21T11:59:43;29.30;1.00
6496;DHT22;3281;47.658;9.166;2023-08-21T12:02:17;29.20;1.00
6496;DHT22;3281;47.658;9.166;2023-08-21T12:04:44;29.20;1.00
6496;DHT22;3281;47.658;9.166;2023-08-21T12:07:12;29.20;1.00
6496;DHT22;3281;47.658;9.166;2023-08-21T12:09:38;29.30;1.00
6496;DHT22;3281;47.658;9.166;2023-08-21T12:12:07;29.40;1.00
6496;DHT22;3281;47.658;9.166;2023-08-21T12:14:33;29.30;1.00
6496;DHT22;3281;47.658;9.166;2023-08-21T12:17:04;29.20;1.00
6496;DHT22;3281;47.658;9.166;2023-08-21T12:19:31;29.10;1.00
6496;DHT22;3281;47.658;9.166;2023-08-21T12:21:58;29.20;1.00
6496;DHT22;3281;47.658;9.166;2023-08-21T12:24:24;29.30;1.00
6496;DHT22;3281;47.658;9.166;2023-08-21T12:26:51;29.30;1.00
6496;DHT22;3281;47.658;9.166;2023-08-21T12:29:19;29.30;1.00
6496;DHT22;3281;47.658;9.166;2023-08-21T12:31:46;29.30;1.00
6496;DHT22;3281;47.658;9.166;2023-08-21T12:34:13;29.30;1.00
6496;DHT22;3281;47.658;9.166;2023-08-21T12:36:40;29.30;1.00
6496;DHT22;3281;47.658;9.166;2023-08-21T12:39:07;29.30;1.00
6496;DHT22;3281;47.658;9.166;2023-08-21T12:41:34;29.30;1.00
6496;DHT22;3281;47.658;9.166;2023-08-21T12:44:01;29.70;1.00
6496;DHT22;3281;47.658;9.166;2023-08-21T12:46:30;29.80;1.00
6496;DHT22;3281;47.658;9.166;2023-08-21T12:48:57;29.90;1.00
6496;DHT22;3281;47.658;9.166;2023-08-21T12:51:24;29.90;1.00
6496;DHT22;3281;47.658;9.166;2023-08-21T12:53:51;30.00;1.00
6496;DHT22;3281;47.658;9.166;2023-08-21T12:56:18;30.00;1.00
6496;DHT22;3281;47.658;9.166;2023-08-21T12:58:45;30.00;1.00
6496;DHT22;3281;47.658;9.166;2023-08-21T13:01:12;29.90;1.00
6496;DHT22;3281;47.658;9.166;2023-08-21T13:03:43;29.80;1.00
6496;DHT22;3281;47.658;9.166;2023-08-21T13:06:10;29.70;1.00
6496;DHT22;3281;47.658;9.166;2023-08-21T13:08:37;29.60;1.00
6496;DHT22;3281;47.658;9.166;2023-08-21T13:11:03;29.60;1.00
6496;DHT22;3281;47.658;9.166;2023-08-21T13:13:31;29.60;1.00
6496;DHT22;3281;47.658;9.166;2023-08-21T13:15:58;29.50;1.00
6496;DHT22;3281;47.658;9.166;2023-08-21T13:18:25;29.50;1.00
6496;DHT22;3281;47.658;9.166;2023-08-21T13:20:53;29.50;1.00
6496;DHT22;3281;47.658;9.166;2023-08-21T13:23:20;29.50;1.00
6496;DHT22;3281;47.658;9.166;2023-08-21T13:25:48;29.30;1.00
6496;DHT22;3281;47.658;9.166;2023-08-21T13:28:14;29.20;1.00
6496;DHT22;3281;47.658;9.166;2023-08-21T13:30:41;29.20;1.00
6496;DHT22;3281;47.658;9.166;2023-08-21T13:33:08;29.20;1.00
6496;DHT22;3281;47.658;9.166;2023-08-21T13:35:34;29.30;1.00
6496;DHT22;3281;47.658;9.166;2023-08-21T13:38:03;29.20;1.00
6496;DHT22;3281;47.658;9.166;2023-08-21T13:40:31;29.20;1.00
6496;DHT22;3281;47.658;9.166;2023-08-21T13:42:57;29.10;1.00
6496;DHT22;3281;47.658;9.166;2023-08-21T13:45:25;29.00;1.00
6496;DHT22;3281;47.658;9.166;2023-08-21T13:47:52;29.10;1.00
6496;DHT22;3281;47.658;9.166;2023-08-21T13:50:19;29.10;1.00
6496;DHT22;3281;47.658;9.166;2023-08-21T13:52:47;29.00;1.00
6496;DHT22;3281;47.658;9.166;2023-08-21T13:55:15;29.00;1.00
6496;DHT22;3281;47.658;9.166;2023-08-21T13:57:42;29.00;1.00
6496;DHT22;3281;47.658;9.166;2023-08-21T14:00:10;29.10;1.00
6496;DHT22;3281;47.658;9.166;2023-08-21T14:02:38;29.10;1.00
6496;DHT22;3281;47.658;9.166;2023-08-21T14:05:06;29.10;1.00
6496;DHT22;3281;47.658;9.166;2023-08-21T14:07:33;29.10;1.00
6496;DHT22;3281;47.658;9.166;2023-08-21T14:10:00;29.20;1.00
6496;DHT22;3281;47.658;9.166;2023-08-21T14:12:29;29.30;1.00
6496;DHT22;3281;47.658;9.166;2023-08-21T14:14:56;29.50;1.00
6496;DHT22;3281;47.658;9.166;2023-08-21T14:17:23;29.60;1.00
6496;DHT22;3281;47.658;9.166;2023-08-21T14:19:50;29.70;1.00
6496;DHT22;3281;47.658;9.166;2023-08-21T14:22:17;29.90;1.00
6496;DHT22;3281;47.658;9.166;2023-08-21T14:24:43;30.10;1.00
6496;DHT22;3281;47.658;9.166;2023-08-21T14:27:10;30.30;1.00
6496;DHT22;3281;47.658;9.166;2023-08-21T14:29:37;30.20;1.00
6496;DHT22;3281;47.658;9.166;2023-08-21T14:32:04;30.20;1.00
6496;DHT22;3281;47.658;9.166;2023-08-21T14:34:31;30.20;1.00
6496;DHT22;3281;47.658;9.166;2023-08-21T14:36:57;30.10;1.00
6496;DHT22;3281;47.658;9.166;2023-08-21T14:39:25;30.00;1.00
6496;DHT22;3281;47.658;9.166;2023-08-21T14:41:55;29.90;1.00
6496;DHT22;3281;47.658;9.166;2023-08-21T14:44:23;29.80;1.00
6496;DHT22;3281;47.658;9.166;2023-08-21T14:46:52;29.70;1.00
6496;DHT22;3281;47.658;9.166;2023-08-21T14:49:19;29.50;1.00
6496;DHT22;3281;47.658;9.166;2023-08-21T14:51:46;29.30;1.00
6496;DHT22;3281;47.658;9.166;2023-08-21T14:54:12;29.30;1.00
6496;DHT22;3281;47.658;9.166;2023-08-21T14:56:39;29.20;1.00
6496;DHT22;3281;47.658;9.166;2023-08-21T14:59:06;29.30;1.00
6496;DHT22;3281;47.658;9.166;2023-08-21T15:01:36;29.10;1.00
6496;DHT22;3281;47.658;9.166;2023-08-21T15:04:04;29.10;1.00
6496;DHT22;3281;47.658;9.166;2023-08-21T15:06:31;29.10;1.00
6496;DHT22;3281;47.658;9.166;2023-08-21T15:08:58;29.20;1.00
6496;DHT22;3281;47.658;9.166;2023-08-21T15:11:24;29.10;1.00
6496;DHT22;3281;47.658;9.166;2023-08-21T15:13:51;29.10;1.00
6496;DHT22;3281;47.658;9.166;2023-08-21T15:16:18;29.00;1.00
6496;DHT22;3281;47.658;9.166;2023-08-21T15:18:45;28.80;1.00
6496;DHT22;3281;47.658;9.166;2023-08-21T15:21:14;28.80;1.00
6496;DHT22;3281;47.658;9.166;2023-08-21T15:23:40;28.80;1.00
6496;DHT22;3281;47.658;9.166;2023-08-21T15:26:07;28.70;1.00
6496;DHT22;3281;47.658;9.166;2023-08-21T15:28:34;28.80;1.00
6496;DHT22;3281;47.658;9.166;2023-08-21T15:31:00;28.70;1.00
6496;DHT22;3281;47.658;9.166;2023-08-21T15:33:28;28.70;1.00
6496;DHT22;3281;47.658;9.166;2023-08-21T15:35:55;28.60;1.00
6496;DHT22;3281;47.658;9.166;2023-08-21T15:38:23;28.70;1.00
6496;DHT22;3281;47.658;9.166;2023-08-21T15:40:50;28.70;1.00
6496;DHT22;3281;47.658;9.166;2023-08-21T15:43:16;28.70;1.00
6496;DHT22;3281;47.658;9.166;2023-08-21T15:45:43;28.60;1.00
6496;DHT22;3281;47.658;9.166;2023-08-21T15:48:10;28.60;1.00
6496;DHT22;3281;47.658;9.166;2023-08-21T15:50:36;28.60;1.00
6496;DHT22;3281;47.658;9.166;2023-08-21T15:53:03;28.60;1.00
6496;DHT22;3281;47.658;9.166;2023-08-21T15:55:31;28.50;1.00
6496;DHT22;3281;47.658;9.166;2023-08-21T15:57:58;28.50;1.00
6496;DHT22;3281;47.658;9.166;2023-08-21T16:00:24;28.40;1.00
6496;DHT22;3281;47.658;9.166;2023-08-21T16:02:51;28.40;1.00
6496;DHT22;3281;47.658;9.166;2023-08-21T16:05:19;28.40;1.00
6496;DHT22;3281;47.658;9.166;2023-08-21T16:07:46;28.30;1.00
6496;DHT22;3281;47.658;9.166;2023-08-21T16:10:13;28.30;1.00
6496;DHT22;3281;47.658;9.166;2023-08-21T16:12:41;28.40;1.00
6496;DHT22;3281;47.658;9.166;2023-08-21T16:15:08;28.20;1.00
6496;DHT22;3281;47.658;9.166;2023-08-21T16:17:35;28.10;1.00
6496;DHT22;3281;47.658;9.166;2023-08-21T16:20:03;28.10;1.00